Weather at Desierto de Atacama Airport

Public forecast

Using degrees Celsius for public forecast. Weather courtesy of forecast.io.

Current aviation weather report (METAR) for Desierto de Atacama Airport

2022/12/03 15:00 (retrieved 29 minutes ago)

SCAT 031500Z 28008KT 250V310 9999 BKN016 17/13 Q1017

Aviation forecast (TAF) for Desierto de Atacama Airport

2022/12/03 12:00 (retrieved 3 hours ago)

TAF SCAT 031056Z 0312/0412 24006KT 9999 OVC013 TX21/0318Z TN14/0410Z BECMG 0315/0317 25010KT CAVOK BECMG 0400/0402 24004KT BKN015 BECMG 0404/0406 OVC010